Terminal Aerodrome Forecast
Issued by NWS Buffalo, NY

Home | Current Version | Previous Version | Text Only | Print | Product List | Glossary On
Versions: 1 2 3 4 5 6 7 8 9 10 11 12 13 14 15 16 17 18 19 20 21 22 23 24 25
000
FTUS41 KBUF 012100 AAA
TAFART
TAF AMD
KART 012123Z 0121/0218 25008KT P6SM FEW050 FEW250
     FM020200 17006KT P6SM SCT250
     FM020800 14006KT P6SM BKN110
     FM021500 18006KT P6SM VCSH BKN070=

USA.gov is the U.S. government's official web portal to all federal, state and local government web resources and services.